createdAt,value
2023-03-19T00:01:10.375Z,4.89
2023-03-19T00:03:36.826Z,4.94
2023-03-19T00:06:03.188Z,4.80
2023-03-19T00:08:29.543Z,4.56
2023-03-19T00:10:56.038Z,4.28
2023-03-19T00:13:22.405Z,5.91
2023-03-19T00:15:48.758Z,6.28
2023-03-19T00:18:15.095Z,6.26
2023-03-19T00:20:41.480Z,6.03
2023-03-19T00:23:07.808Z,6.15
2023-03-19T00:25:34.291Z,5.35
2023-03-19T00:28:00.766Z,5.29
2023-03-19T00:30:27.218Z,5.90
2023-03-19T00:32:53.632Z,6.57
2023-03-19T00:35:19.993Z,7.03
2023-03-19T00:37:46.542Z,7.37
2023-03-19T00:40:12.926Z,7.21
2023-03-19T00:42:39.312Z,7.37
2023-03-19T00:45:05.661Z,7.20
2023-03-19T00:47:32.006Z,6.87
2023-03-19T00:49:58.348Z,6.22
2023-03-19T00:52:24.672Z,7.76
2023-03-19T00:54:51.068Z,8.80
2023-03-19T00:57:17.487Z,5.51
2023-03-19T00:59:45.899Z,7.28
2023-03-19T01:02:12.290Z,10.79
2023-03-19T01:04:38.661Z,9.70
2023-03-19T01:07:05.022Z,7.04
2023-03-19T01:09:31.410Z,5.31
2023-03-19T01:11:57.815Z,4.59
2023-03-19T01:14:24.180Z,4.88
2023-03-19T01:16:50.588Z,4.33
2023-03-19T01:19:17.021Z,4.72
2023-03-19T01:21:43.374Z,4.97
2023-03-19T01:24:09.698Z,5.60
2023-03-19T01:26:36.382Z,5.62
2023-03-19T01:29:02.723Z,5.64
2023-03-19T01:31:29.124Z,5.77
2023-03-19T01:33:55.505Z,6.03
2023-03-19T01:36:21.833Z,5.54
2023-03-19T01:38:48.182Z,6.07
2023-03-19T01:41:14.536Z,6.98
2023-03-19T01:43:40.924Z,7.87
2023-03-19T01:46:07.329Z,8.38
2023-03-19T01:48:33.743Z,7.58
2023-03-19T01:51:00.092Z,7.29
2023-03-19T01:53:26.414Z,6.64
2023-03-19T01:55:52.825Z,5.86
2023-03-19T01:58:19.167Z,4.34
2023-03-19T02:00:45.508Z,4.44
2023-03-19T02:03:11.845Z,4.33
2023-03-19T02:05:38.175Z,4.87
2023-03-19T02:08:04.548Z,5.32
2023-03-19T02:10:30.988Z,5.57
2023-03-19T02:12:57.390Z,5.60
2023-03-19T02:15:23.766Z,5.81
2023-03-19T02:17:50.113Z,5.41
2023-03-19T02:20:16.456Z,5.84
2023-03-19T02:22:42.802Z,6.23
2023-03-19T02:25:09.128Z,6.12
2023-03-19T02:27:35.499Z,6.60
2023-03-19T02:30:03.072Z,5.89
2023-03-19T02:32:29.493Z,5.92
2023-03-19T02:34:55.830Z,5.39
2023-03-19T02:37:22.177Z,5.38
2023-03-19T02:39:48.528Z,5.51
2023-03-19T02:42:14.891Z,5.80
2023-03-19T02:44:41.288Z,5.77
2023-03-19T02:47:07.643Z,5.61
2023-03-19T02:49:34.051Z,5.99
2023-03-19T02:52:00.447Z,6.28
2023-03-19T02:54:26.797Z,6.27
2023-03-19T02:56:53.147Z,6.58
2023-03-19T02:59:19.497Z,7.57
2023-03-19T03:01:45.867Z,6.78
2023-03-19T03:04:12.228Z,6.29
2023-03-19T03:06:38.570Z,7.05
2023-03-19T03:09:05.020Z,7.69
2023-03-19T03:11:31.353Z,6.91
2023-03-19T03:13:57.699Z,6.38
2023-03-19T03:16:24.063Z,6.39
2023-03-19T03:18:50.442Z,5.77
2023-03-19T03:21:16.778Z,5.00
2023-03-19T03:23:43.118Z,4.61
2023-03-19T03:26:09.488Z,4.72
2023-03-19T03:28:35.869Z,6.22
2023-03-19T03:31:02.238Z,7.04
2023-03-19T03:33:28.680Z,5.86
2023-03-19T03:35:55.095Z,5.01
2023-03-19T03:38:21.535Z,4.86
2023-03-19T03:40:47.943Z,4.39
2023-03-19T03:43:14.389Z,4.14
2023-03-19T03:45:40.792Z,4.15
2023-03-19T03:48:07.140Z,4.17
2023-03-19T03:50:33.925Z,4.14
2023-03-19T03:53:00.426Z,4.71
2023-03-19T03:55:26.804Z,5.16
2023-03-19T03:57:53.149Z,5.37
2023-03-19T04:00:19.506Z,5.07
2023-03-19T04:02:45.846Z,5.07
2023-03-19T04:05:12.261Z,5.41
2023-03-19T04:07:38.621Z,5.82
2023-03-19T04:10:05.077Z,5.28
2023-03-19T04:12:31.462Z,5.27
2023-03-19T04:14:57.829Z,5.30
2023-03-19T04:17:24.196Z,5.07
2023-03-19T04:19:50.570Z,5.13
2023-03-19T04:22:17.039Z,5.55
2023-03-19T04:24:43.425Z,5.51
2023-03-19T04:27:09.763Z,5.48
2023-03-19T04:29:36.167Z,5.67
2023-03-19T04:32:02.534Z,5.99
2023-03-19T04:34:28.899Z,5.57
2023-03-19T04:36:55.302Z,5.72
2023-03-19T04:39:21.630Z,5.50
2023-03-19T04:41:47.985Z,4.88
2023-03-19T04:44:14.426Z,5.11
2023-03-19T04:46:40.802Z,4.65
2023-03-19T04:49:07.145Z,4.76
2023-03-19T04:51:33.488Z,5.11
2023-03-19T04:53:59.854Z,5.44
2023-03-19T04:56:26.217Z,5.42
2023-03-19T04:58:52.623Z,5.32
2023-03-19T05:01:19.081Z,4.70
2023-03-19T05:03:45.435Z,4.47
2023-03-19T05:06:11.836Z,4.68
2023-03-19T05:08:38.193Z,3.91
2023-03-19T05:11:04.582Z,3.71
2023-03-19T05:13:30.944Z,3.82
2023-03-19T05:15:57.425Z,5.18
2023-03-19T05:18:23.833Z,5.21
2023-03-19T05:20:50.164Z,5.24
2023-03-19T05:23:16.504Z,5.20
2023-03-19T05:25:42.864Z,5.06
2023-03-19T05:28:09.291Z,4.70
2023-03-19T05:30:36.040Z,4.65
2023-03-19T05:33:02.717Z,4.20
2023-03-19T05:35:29.210Z,4.01
2023-03-19T05:37:55.603Z,3.86
2023-03-19T05:40:22.011Z,4.35
2023-03-19T05:42:48.464Z,4.56
2023-03-19T05:45:14.800Z,4.53
2023-03-19T05:47:41.114Z,4.34
2023-03-19T05:50:07.465Z,4.26
2023-03-19T05:52:33.864Z,4.27
2023-03-19T05:55:00.266Z,4.23
2023-03-19T05:57:26.663Z,4.40
2023-03-19T05:59:52.990Z,4.62
2023-03-19T06:02:19.553Z,4.66
2023-03-19T06:04:46.056Z,4.96
2023-03-19T06:07:12.538Z,4.94
2023-03-19T06:09:38.917Z,5.05
2023-03-19T06:12:05.249Z,5.18
2023-03-19T06:14:31.608Z,4.66
2023-03-19T06:16:58.031Z,5.38
2023-03-19T06:19:24.471Z,5.30
2023-03-19T06:21:50.811Z,5.48
2023-03-19T06:24:17.137Z,4.54
2023-03-19T06:26:43.449Z,4.28
2023-03-19T06:29:09.844Z,4.96
2023-03-19T06:31:36.355Z,17.02
2023-03-19T06:34:02.770Z,10.06
2023-03-19T06:36:29.139Z,6.22
2023-03-19T06:38:55.465Z,5.22
2023-03-19T06:41:21.825Z,5.03
2023-03-19T06:43:48.162Z,4.76
2023-03-19T06:46:14.580Z,5.28
2023-03-19T06:48:41.007Z,6.12
2023-03-19T06:51:07.391Z,6.66
2023-03-19T06:53:33.744Z,5.99
2023-03-19T06:56:00.064Z,4.81
2023-03-19T06:58:26.416Z,4.03
2023-03-19T07:00:52.816Z,4.79
2023-03-19T07:03:19.221Z,6.04
2023-03-19T07:05:45.568Z,6.57
2023-03-19T07:08:11.984Z,6.38
2023-03-19T07:10:38.432Z,5.63
2023-03-19T07:13:04.849Z,5.53
2023-03-19T07:15:31.192Z,5.58
2023-03-19T07:17:57.541Z,6.15
2023-03-19T07:20:23.876Z,5.95
2023-03-19T07:22:50.212Z,6.04
2023-03-19T07:25:16.544Z,5.98
2023-03-19T07:27:42.959Z,6.12
2023-03-19T07:30:09.285Z,6.26
2023-03-19T07:32:35.723Z,6.22
2023-03-19T07:35:02.146Z,6.55
2023-03-19T07:37:28.484Z,6.09
2023-03-19T07:39:54.845Z,6.18
2023-03-19T07:42:21.195Z,6.22
2023-03-19T07:44:47.533Z,6.07
2023-03-19T07:47:27.929Z,6.37
2023-03-19T07:49:54.743Z,6.51
2023-03-19T07:52:21.099Z,6.28
2023-03-19T07:54:47.530Z,6.30
2023-03-19T07:57:13.932Z,6.38
2023-03-19T07:59:40.428Z,6.13
2023-03-19T08:02:06.835Z,5.77
2023-03-19T08:04:33.327Z,6.06
2023-03-19T08:06:59.799Z,5.89
2023-03-19T08:09:26.323Z,5.76
2023-03-19T08:11:52.733Z,6.25
2023-03-19T08:14:19.183Z,5.79
2023-03-19T08:16:45.638Z,6.28
2023-03-19T08:19:12.047Z,6.49
2023-03-19T08:21:38.463Z,6.40
2023-03-19T08:24:05.168Z,6.49
2023-03-19T08:26:31.609Z,6.82
2023-03-19T08:28:58.029Z,7.01
2023-03-19T08:31:24.467Z,7.10
2023-03-19T08:33:50.913Z,7.13
2023-03-19T08:36:17.297Z,7.41
2023-03-19T08:38:43.650Z,7.41
2023-03-19T08:41:09.996Z,7.23
2023-03-19T08:43:36.360Z,6.89
2023-03-19T08:46:02.731Z,6.90
2023-03-19T08:48:29.108Z,6.68
2023-03-19T08:50:55.459Z,6.95
2023-03-19T08:53:21.792Z,7.33
2023-03-19T08:55:48.149Z,7.30
2023-03-19T08:58:14.498Z,6.78
2023-03-19T09:00:40.825Z,6.62
2023-03-19T09:03:07.190Z,6.79
2023-03-19T09:05:33.550Z,6.73
2023-03-19T09:07:59.899Z,6.86
2023-03-19T09:10:26.287Z,6.76
2023-03-19T09:12:52.735Z,6.85
2023-03-19T09:15:19.185Z,6.81
2023-03-19T09:17:45.648Z,7.10
2023-03-19T09:20:12.074Z,6.76
2023-03-19T09:22:38.502Z,6.82
2023-03-19T09:25:05.069Z,6.85
2023-03-19T09:27:31.475Z,7.00
2023-03-19T09:29:57.865Z,6.93
2023-03-19T09:32:24.250Z,7.00
2023-03-19T09:34:50.591Z,6.87
2023-03-19T09:37:16.955Z,6.61
2023-03-19T09:39:43.305Z,6.77
2023-03-19T09:42:09.679Z,6.80
2023-03-19T09:44:36.092Z,7.02
2023-03-19T09:47:02.494Z,6.59
2023-03-19T09:49:28.840Z,6.97
2023-03-19T09:51:55.185Z,6.92
2023-03-19T09:54:21.543Z,6.92
2023-03-19T09:56:47.881Z,7.19
2023-03-19T09:59:14.240Z,7.37
2023-03-19T10:01:40.718Z,7.19
2023-03-19T10:04:07.167Z,6.80
2023-03-19T10:06:33.558Z,7.24
2023-03-19T10:08:59.993Z,6.91
2023-03-19T10:11:26.371Z,7.09
2023-03-19T10:13:53.954Z,7.27
2023-03-19T10:16:20.339Z,6.87
2023-03-19T10:18:46.994Z,7.07
2023-03-19T10:21:13.538Z,6.94
2023-03-19T10:23:39.984Z,7.22
2023-03-19T10:26:06.398Z,6.93
2023-03-19T10:28:32.786Z,7.07
2023-03-19T10:31:01.481Z,6.67
2023-03-19T10:33:28.837Z,6.57
2023-03-19T10:35:55.275Z,6.64
2023-03-19T10:38:21.622Z,6.53
2023-03-19T10:40:47.974Z,6.76
2023-03-19T10:43:14.303Z,7.13
2023-03-19T10:45:41.169Z,6.75
2023-03-19T10:48:07.760Z,7.32
2023-03-19T10:50:34.119Z,6.94
2023-03-19T10:53:00.497Z,6.53
2023-03-19T10:55:26.825Z,6.91
2023-03-19T10:57:53.180Z,7.02
2023-03-19T11:00:19.560Z,7.12
2023-03-19T11:02:45.896Z,6.89
2023-03-19T11:05:12.243Z,6.98
2023-03-19T11:07:38.628Z,6.58
2023-03-19T11:10:04.989Z,6.78
2023-03-19T11:12:31.320Z,7.04
2023-03-19T11:14:57.700Z,7.72
2023-03-19T11:17:24.102Z,7.52
2023-03-19T11:19:50.453Z,7.38
2023-03-19T11:22:18.455Z,7.00
2023-03-19T11:24:46.717Z,6.60
2023-03-19T11:27:13.091Z,7.43
2023-03-19T11:29:39.525Z,6.87
2023-03-19T11:32:20.338Z,6.62
2023-03-19T11:34:47.337Z,6.73
2023-03-19T11:37:13.776Z,6.73
2023-03-19T11:39:40.095Z,6.93
2023-03-19T11:42:06.511Z,6.50
2023-03-19T11:44:32.873Z,6.21
2023-03-19T11:46:59.237Z,6.32
2023-03-19T11:49:25.714Z,6.75
2023-03-19T11:51:52.165Z,6.77
2023-03-19T11:54:19.645Z,6.96
2023-03-19T11:56:46.076Z,6.47
2023-03-19T11:59:12.442Z,6.87
2023-03-19T12:01:39.361Z,7.38
2023-03-19T12:04:05.846Z,6.64
2023-03-19T12:06:32.266Z,6.64
2023-03-19T12:08:58.654Z,6.99
2023-03-19T12:11:25.092Z,6.90
2023-03-19T12:13:51.454Z,6.97
2023-03-19T12:16:17.957Z,6.83
2023-03-19T12:18:44.356Z,6.57
2023-03-19T12:21:10.710Z,6.78
2023-03-19T12:23:37.054Z,6.73
2023-03-19T12:26:03.422Z,6.63
2023-03-19T12:28:29.822Z,6.70
2023-03-19T12:30:56.358Z,6.61
2023-03-19T12:33:22.762Z,6.79
2023-03-19T12:35:49.195Z,6.95
2023-03-19T12:38:15.542Z,6.70
2023-03-19T12:40:41.958Z,6.57
2023-03-19T12:43:08.394Z,6.79
2023-03-19T12:45:35.070Z,6.92
2023-03-19T12:48:01.585Z,6.91
2023-03-19T12:50:28.023Z,6.50
2023-03-19T12:52:55.217Z,6.30
2023-03-19T12:55:22.414Z,6.55
2023-03-19T12:57:48.909Z,6.21
2023-03-19T13:00:15.412Z,6.37
2023-03-19T13:02:41.815Z,6.45
2023-03-19T13:05:08.340Z,6.56
2023-03-19T13:07:34.806Z,6.38
2023-03-19T13:10:01.162Z,6.38
2023-03-19T13:12:27.587Z,6.45
2023-03-19T13:14:53.928Z,6.73
2023-03-19T13:17:21.489Z,6.60
2023-03-19T13:19:47.933Z,6.00
2023-03-19T13:22:14.299Z,7.90
2023-03-19T13:24:40.663Z,5.99
2023-03-19T13:27:07.017Z,5.62
2023-03-19T13:29:33.546Z,5.53
2023-03-19T13:31:59.965Z,5.70
2023-03-19T13:34:26.374Z,6.02
2023-03-19T13:36:52.731Z,5.71
2023-03-19T13:39:19.131Z,6.06
2023-03-19T13:41:45.486Z,5.80
2023-03-19T13:44:11.874Z,5.77
2023-03-19T13:46:38.255Z,6.07
2023-03-19T13:49:04.642Z,5.92
2023-03-19T13:51:30.978Z,6.03
2023-03-19T13:53:57.398Z,6.38
2023-03-19T13:56:30.126Z,5.94
2023-03-19T13:58:56.968Z,6.05
2023-03-19T14:01:23.425Z,5.93
2023-03-19T14:03:49.914Z,6.32
2023-03-19T14:06:16.324Z,5.89
2023-03-19T14:08:42.652Z,6.12
2023-03-19T14:11:09.073Z,6.33
2023-03-19T14:13:35.384Z,6.41
2023-03-19T14:16:01.730Z,6.63
2023-03-19T14:18:28.160Z,7.02
2023-03-19T14:20:54.812Z,6.41
2023-03-19T14:23:23.425Z,6.57
2023-03-19T14:25:51.396Z,6.93
2023-03-19T14:28:17.761Z,7.28
2023-03-19T14:30:44.122Z,6.81
2023-03-19T14:33:10.515Z,6.36
2023-03-19T14:35:36.962Z,6.31
2023-03-19T14:38:03.344Z,6.54
2023-03-19T14:40:29.719Z,6.73
2023-03-19T14:42:56.198Z,6.93
2023-03-19T14:45:22.641Z,6.94
2023-03-19T14:47:48.973Z,6.79
2023-03-19T14:50:15.404Z,6.79
2023-03-19T14:52:41.753Z,7.01
2023-03-19T14:55:08.156Z,7.29
2023-03-19T14:57:34.595Z,6.76
2023-03-19T15:00:01.046Z,7.03
2023-03-19T15:02:27.460Z,6.65
2023-03-19T15:04:53.837Z,6.62
2023-03-19T15:07:20.202Z,6.76
2023-03-19T15:09:46.566Z,8.20
2023-03-19T15:12:13.012Z,9.53
2023-03-19T15:14:39.443Z,7.60
2023-03-19T15:17:05.866Z,7.49
2023-03-19T15:19:32.347Z,6.72
2023-03-19T15:21:58.808Z,6.84
2023-03-19T15:24:25.173Z,6.52
2023-03-19T15:26:51.523Z,6.79
2023-03-19T15:29:18.981Z,6.50
2023-03-19T15:31:51.648Z,6.07
2023-03-19T15:34:20.100Z,6.56
2023-03-19T15:36:46.577Z,6.92
2023-03-19T15:39:12.938Z,6.63
2023-03-19T15:41:39.537Z,6.29
2023-03-19T15:44:05.898Z,6.37
2023-03-19T15:46:32.377Z,6.22
2023-03-19T15:48:58.751Z,5.98
2023-03-19T15:51:25.157Z,6.53
2023-03-19T15:53:51.617Z,6.81
2023-03-19T15:56:17.973Z,7.05
2023-03-19T15:58:44.361Z,6.76
2023-03-19T16:01:10.830Z,6.94
2023-03-19T16:03:37.227Z,6.77
2023-03-19T16:06:03.695Z,6.75
2023-03-19T16:08:31.427Z,6.97
2023-03-19T16:10:57.906Z,6.93
2023-03-19T16:13:24.321Z,7.26
2023-03-19T16:15:55.105Z,7.23
2023-03-19T16:18:21.491Z,6.58
2023-03-19T16:20:47.917Z,6.94
2023-03-19T16:23:14.283Z,7.43
2023-03-19T16:25:40.630Z,7.73
2023-03-19T16:28:06.982Z,8.45
2023-03-19T16:30:34.813Z,6.71
2023-03-19T16:33:02.767Z,5.42
2023-03-19T16:35:29.428Z,5.67
2023-03-19T16:37:57.077Z,5.40
2023-03-19T16:40:23.522Z,5.84
2023-03-19T16:42:51.901Z,5.96
2023-03-19T16:45:18.286Z,5.96
2023-03-19T16:47:44.746Z,5.92
2023-03-19T16:50:11.162Z,5.99
2023-03-19T16:52:37.661Z,5.94
2023-03-19T16:55:04.149Z,5.91
2023-03-19T16:57:30.594Z,6.25
2023-03-19T16:59:57.066Z,11.52
2023-03-19T17:02:23.506Z,12.88
2023-03-19T17:04:49.971Z,8.87
2023-03-19T17:07:16.531Z,20.18
2023-03-19T17:09:42.909Z,13.07
2023-03-19T17:12:09.382Z,8.12
2023-03-19T17:14:35.716Z,6.59
2023-03-19T17:17:02.159Z,5.96
2023-03-19T17:19:28.574Z,5.70
2023-03-19T17:21:54.923Z,6.77
2023-03-19T17:24:21.436Z,5.78
2023-03-19T17:26:47.834Z,5.42
2023-03-19T17:29:14.283Z,5.69
2023-03-19T17:31:40.636Z,8.43
2023-03-19T17:34:07.000Z,12.14
2023-03-19T17:36:33.400Z,7.36
2023-03-19T17:39:02.503Z,6.53
2023-03-19T17:41:28.828Z,6.63
2023-03-19T17:43:55.166Z,6.70
2023-03-19T17:46:21.570Z,6.87
2023-03-19T17:48:47.933Z,6.98
2023-03-19T17:51:14.291Z,7.55
2023-03-19T17:53:40.672Z,8.99
2023-03-19T17:56:07.033Z,11.05
2023-03-19T17:58:33.544Z,12.50
2023-03-19T18:00:59.982Z,13.59
2023-03-19T18:03:27.648Z,11.89
2023-03-19T18:05:54.101Z,9.32
2023-03-19T18:08:20.515Z,10.64
2023-03-19T18:10:46.895Z,7.73
2023-03-19T18:13:13.674Z,7.81
2023-03-19T18:15:40.046Z,7.19
2023-03-19T18:18:06.476Z,6.94
2023-03-19T18:20:32.924Z,6.87
2023-03-19T18:22:59.320Z,7.23
2023-03-19T18:25:25.662Z,10.10
2023-03-19T18:27:52.079Z,8.65
2023-03-19T18:30:18.428Z,8.59
2023-03-19T18:32:44.801Z,7.57
2023-03-19T18:35:11.228Z,6.21
2023-03-19T18:37:37.628Z,5.75
2023-03-19T18:40:04.009Z,5.08
2023-03-19T18:42:30.379Z,6.27
2023-03-19T18:44:56.795Z,6.38
2023-03-19T18:47:23.196Z,6.63
2023-03-19T18:49:49.588Z,6.07
2023-03-19T18:52:19.102Z,4.19
2023-03-19T18:54:45.861Z,4.71
2023-03-19T18:57:12.271Z,3.50
2023-03-19T18:59:38.600Z,3.42
2023-03-19T19:02:05.159Z,3.29
2023-03-19T19:04:31.642Z,2.83
2023-03-19T19:06:57.996Z,2.38
2023-03-19T19:09:24.382Z,2.73
2023-03-19T19:11:52.810Z,2.28
2023-03-19T19:14:19.227Z,2.63
2023-03-19T19:16:45.812Z,2.67
2023-03-19T19:19:12.199Z,2.12
2023-03-19T19:21:38.599Z,1.63
2023-03-19T19:24:04.972Z,1.61
2023-03-19T19:26:31.411Z,1.58
2023-03-19T19:28:57.789Z,1.57
2023-03-19T19:31:24.422Z,1.36
2023-03-19T19:33:55.696Z,0.98
2023-03-19T19:36:24.146Z,0.83
2023-03-19T19:38:50.519Z,0.90
2023-03-19T19:41:16.879Z,0.71
2023-03-19T19:43:46.093Z,1.27
2023-03-19T19:46:12.476Z,1.30
2023-03-19T19:48:38.954Z,1.14
2023-03-19T19:51:08.553Z,1.12
2023-03-19T19:53:35.047Z,0.86
2023-03-19T19:56:01.386Z,0.81
2023-03-19T19:58:27.791Z,0.80
2023-03-19T20:01:03.456Z,0.87
2023-03-19T20:03:33.651Z,1.56
2023-03-19T20:06:02.810Z,1.57
2023-03-19T20:08:35.437Z,1.56
2023-03-19T20:11:01.824Z,1.39
2023-03-19T20:13:28.193Z,1.87
2023-03-19T20:15:55.891Z,14.50
2023-03-19T20:18:22.267Z,8.01
2023-03-19T20:20:48.642Z,6.07
2023-03-19T20:23:14.972Z,4.22
2023-03-19T20:25:42.776Z,3.20
2023-03-19T20:28:11.412Z,4.25
2023-03-19T20:30:37.924Z,2.42
2023-03-19T20:33:05.754Z,1.67
2023-03-19T20:35:34.547Z,1.18
2023-03-19T20:38:01.135Z,1.24
2023-03-19T20:40:27.592Z,1.02
2023-03-19T20:42:53.924Z,0.91
2023-03-19T20:45:20.269Z,1.00
2023-03-19T20:47:46.655Z,1.03
2023-03-19T20:50:13.124Z,0.86
2023-03-19T20:52:39.520Z,0.78
2023-03-19T20:55:05.909Z,1.02
2023-03-19T20:57:32.342Z,1.08
2023-03-19T20:59:58.689Z,1.36
2023-03-19T21:02:25.098Z,1.41
2023-03-19T21:04:51.463Z,1.38
2023-03-19T21:07:17.793Z,1.36
2023-03-19T21:09:44.217Z,1.44
2023-03-19T21:12:10.648Z,1.69
2023-03-19T21:14:37.042Z,1.62
2023-03-19T21:17:03.429Z,2.68
2023-03-19T21:19:29.845Z,4.63
2023-03-19T21:21:56.208Z,4.75
2023-03-19T21:24:22.602Z,3.25
2023-03-19T21:26:49.061Z,2.00
2023-03-19T21:29:15.473Z,1.68
2023-03-19T21:31:41.919Z,1.80
2023-03-19T21:34:08.344Z,1.53
2023-03-19T21:36:34.689Z,0.99
2023-03-19T21:39:01.049Z,1.00
2023-03-19T21:41:27.395Z,1.22
2023-03-19T21:43:53.809Z,1.15
2023-03-19T21:46:24.472Z,1.26
2023-03-19T21:48:51.458Z,1.17
2023-03-19T21:51:17.840Z,1.31
2023-03-19T21:53:44.205Z,1.24
2023-03-19T21:56:10.556Z,1.40
2023-03-19T21:58:36.919Z,0.90
2023-03-19T22:01:03.331Z,1.05
2023-03-19T22:03:29.734Z,1.26
2023-03-19T22:05:56.084Z,1.33
2023-03-19T22:08:22.436Z,1.53
2023-03-19T22:10:48.801Z,1.47
2023-03-19T22:13:15.128Z,1.85
2023-03-19T22:15:41.512Z,1.83
2023-03-19T22:18:07.945Z,1.87
2023-03-19T22:20:34.344Z,1.60
2023-03-19T22:23:00.726Z,1.62
2023-03-19T22:25:27.072Z,1.64
2023-03-19T22:27:53.432Z,1.82
2023-03-19T22:30:19.755Z,1.83
2023-03-19T22:32:46.136Z,1.77
2023-03-19T22:35:12.634Z,1.57
2023-03-19T22:37:38.954Z,1.30
2023-03-19T22:40:05.307Z,0.94
2023-03-19T22:42:31.659Z,1.07
2023-03-19T22:44:58.011Z,1.35
2023-03-19T22:47:24.337Z,1.40
2023-03-19T22:49:50.721Z,1.15
2023-03-19T22:52:17.061Z,1.02
2023-03-19T22:54:43.432Z,1.12
2023-03-19T22:57:09.826Z,1.39
2023-03-19T22:59:36.179Z,1.87
2023-03-19T23:02:02.533Z,1.30
2023-03-19T23:04:28.949Z,1.27
2023-03-19T23:06:55.454Z,1.33
2023-03-19T23:09:21.848Z,1.51
2023-03-19T23:11:48.343Z,1.39
2023-03-19T23:14:27.932Z,1.05
2023-03-19T23:16:55.843Z,0.80
2023-03-19T23:19:22.215Z,0.74
2023-03-19T23:21:48.554Z,0.65
2023-03-19T23:24:14.894Z,0.68
2023-03-19T23:26:41.216Z,0.73
2023-03-19T23:29:07.549Z,0.44
2023-03-19T23:31:33.895Z,0.46
2023-03-19T23:34:00.206Z,0.56
2023-03-19T23:36:26.581Z,0.56
2023-03-19T23:38:52.942Z,0.64
2023-03-19T23:41:19.343Z,0.52
2023-03-19T23:43:45.722Z,0.47
2023-03-19T23:46:12.109Z,0.57
2023-03-19T23:48:38.477Z,2.08
2023-03-19T23:51:04.803Z,4.75
2023-03-19T23:53:31.153Z,5.44
2023-03-19T23:55:57.489Z,7.71
2023-03-19T23:58:23.831Z,5.83
